sensor_id;sensor_type;location;lat;lon;timestamp;P1;durP1;ratioP1;P2;durP2;ratioP2
9140;SDS011;46330;50.822;7.126;2022-10-19T00:02:26;29.15;;;9.23;;
9140;SDS011;46330;50.822;7.126;2022-10-19T00:04:54;29.60;;;8.52;;
9140;SDS011;46330;50.822;7.126;2022-10-19T00:07:22;38.38;;;9.65;;
9140;SDS011;46330;50.822;7.126;2022-10-19T00:09:49;19.33;;;9.48;;
9140;SDS011;46330;50.822;7.126;2022-10-19T00:12:17;29.08;;;11.02;;
9140;SDS011;46330;50.822;7.126;2022-10-19T00:14:45;26.52;;;10.27;;
9140;SDS011;46330;50.822;7.126;2022-10-19T00:17:14;21.05;;;10.35;;
9140;SDS011;46330;50.822;7.126;2022-10-19T00:19:42;18.23;;;10.48;;
9140;SDS011;46330;50.822;7.126;2022-10-19T00:22:09;19.67;;;10.52;;
9140;SDS011;46330;50.822;7.126;2022-10-19T00:24:39;18.38;;;10.05;;
9140;SDS011;46330;50.822;7.126;2022-10-19T00:27:07;32.63;;;10.02;;
9140;SDS011;46330;50.822;7.126;2022-10-19T00:29:35;36.78;;;8.68;;
9140;SDS011;46330;50.822;7.126;2022-10-19T00:32:02;39.72;;;7.45;;
9140;SDS011;46330;50.822;7.126;2022-10-19T00:34:32;46.35;;;6.93;;
9140;SDS011;46330;50.822;7.126;2022-10-19T00:36:59;51.95;;;6.47;;
9140;SDS011;46330;50.822;7.126;2022-10-19T00:39:27;33.65;;;7.68;;
9140;SDS011;46330;50.822;7.126;2022-10-19T00:41:55;28.00;;;7.63;;
9140;SDS011;46330;50.822;7.126;2022-10-19T00:47:36;22.35;;;7.13;;
9140;SDS011;46330;50.822;7.126;2022-10-19T00:50:06;32.90;;;7.88;;
9140;SDS011;46330;50.822;7.126;2022-10-19T00:52:35;21.38;;;7.95;;
9140;SDS011;46330;50.822;7.126;2022-10-19T00:55:03;31.95;;;8.23;;
9140;SDS011;46330;50.822;7.126;2022-10-19T00:57:33;20.60;;;8.05;;
9140;SDS011;46330;50.822;7.126;2022-10-19T01:00:03;22.20;;;8.43;;
9140;SDS011;46330;50.822;7.126;2022-10-19T01:02:32;20.65;;;8.15;;
9140;SDS011;46330;50.822;7.126;2022-10-19T01:05:01;11.75;;;6.82;;
9140;SDS011;46330;50.822;7.126;2022-10-19T01:07:31;11.80;;;7.20;;
9140;SDS011;46330;50.822;7.126;2022-10-19T01:09:59;16.02;;;7.63;;
9140;SDS011;46330;50.822;7.126;2022-10-19T01:12:32;16.42;;;7.65;;
9140;SDS011;46330;50.822;7.126;2022-10-19T01:15:16;17.25;;;7.15;;
9140;SDS011;46330;50.822;7.126;2022-10-19T01:17:53;13.63;;;7.65;;
9140;SDS011;46330;50.822;7.126;2022-10-19T01:20:39;18.73;;;7.75;;
9140;SDS011;46330;50.822;7.126;2022-10-19T01:23:28;17.15;;;8.73;;
9140;SDS011;46330;50.822;7.126;2022-10-19T01:26:09;16.17;;;8.38;;
9140;SDS011;46330;50.822;7.126;2022-10-19T01:28:52;15.88;;;8.88;;
9140;SDS011;46330;50.822;7.126;2022-10-19T01:31:37;17.50;;;9.32;;
9140;SDS011;46330;50.822;7.126;2022-10-19T01:34:12;14.68;;;8.73;;
9140;SDS011;46330;50.822;7.126;2022-10-19T01:36:48;16.00;;;9.18;;
9140;SDS011;46330;50.822;7.126;2022-10-19T01:39:24;13.65;;;9.10;;
9140;SDS011;46330;50.822;7.126;2022-10-19T01:41:56;16.02;;;9.15;;
9140;SDS011;46330;50.822;7.126;2022-10-19T01:44:30;17.13;;;8.88;;
9140;SDS011;46330;50.822;7.126;2022-10-19T01:47:07;18.73;;;9.13;;
9140;SDS011;46330;50.822;7.126;2022-10-19T01:49:41;15.43;;;8.48;;
9140;SDS011;46330;50.822;7.126;2022-10-19T01:52:15;13.77;;;8.60;;
9140;SDS011;46330;50.822;7.126;2022-10-19T01:54:46;16.67;;;8.05;;
9140;SDS011;46330;50.822;7.126;2022-10-19T01:57:18;15.85;;;8.00;;
9140;SDS011;46330;50.822;7.126;2022-10-19T01:59:50;12.90;;;7.95;;
9140;SDS011;46330;50.822;7.126;2022-10-19T02:02:21;21.45;;;8.80;;
9140;SDS011;46330;50.822;7.126;2022-10-19T02:04:52;21.35;;;9.18;;
9140;SDS011;46330;50.822;7.126;2022-10-19T02:07:21;18.02;;;9.40;;
9140;SDS011;46330;50.822;7.126;2022-10-19T02:09:51;20.25;;;8.48;;
9140;SDS011;46330;50.822;7.126;2022-10-19T02:12:18;24.25;;;7.25;;
9140;SDS011;46330;50.822;7.126;2022-10-19T02:14:49;10.68;;;6.28;;
9140;SDS011;46330;50.822;7.126;2022-10-19T02:17:25;15.63;;;6.80;;
9140;SDS011;46330;50.822;7.126;2022-10-19T02:19:57;16.02;;;6.85;;
9140;SDS011;46330;50.822;7.126;2022-10-19T02:22:26;17.27;;;7.32;;
9140;SDS011;46330;50.822;7.126;2022-10-19T02:24:54;15.73;;;8.07;;
9140;SDS011;46330;50.822;7.126;2022-10-19T02:27:21;28.83;;;8.20;;
9140;SDS011;46330;50.822;7.126;2022-10-19T02:29:50;13.95;;;7.60;;
9140;SDS011;46330;50.822;7.126;2022-10-19T02:32:18;25.55;;;7.32;;
9140;SDS011;46330;50.822;7.126;2022-10-19T02:34:47;31.55;;;7.53;;
9140;SDS011;46330;50.822;7.126;2022-10-19T02:37:15;20.15;;;7.95;;
9140;SDS011;46330;50.822;7.126;2022-10-19T02:39:48;32.80;;;8.07;;
9140;SDS011;46330;50.822;7.126;2022-10-19T02:42:16;30.33;;;7.93;;
9140;SDS011;46330;50.822;7.126;2022-10-19T02:44:49;19.52;;;8.02;;
9140;SDS011;46330;50.822;7.126;2022-10-19T02:47:24;14.80;;;8.52;;
9140;SDS011;46330;50.822;7.126;2022-10-19T02:49:55;16.27;;;8.63;;
9140;SDS011;46330;50.822;7.126;2022-10-19T02:52:23;26.10;;;9.27;;
9140;SDS011;46330;50.822;7.126;2022-10-19T02:54:51;25.35;;;9.73;;
9140;SDS011;46330;50.822;7.126;2022-10-19T02:57:19;25.45;;;10.38;;
9140;SDS011;46330;50.822;7.126;2022-10-19T02:59:48;21.80;;;10.18;;
9140;SDS011;46330;50.822;7.126;2022-10-19T03:02:16;31.33;;;9.95;;
9140;SDS011;46330;50.822;7.126;2022-10-19T03:04:45;30.50;;;9.60;;
9140;SDS011;46330;50.822;7.126;2022-10-19T03:07:19;33.50;;;10.40;;
9140;SDS011;46330;50.822;7.126;2022-10-19T03:09:47;24.30;;;10.25;;
9140;SDS011;46330;50.822;7.126;2022-10-19T03:12:15;45.95;;;9.57;;
9140;SDS011;46330;50.822;7.126;2022-10-19T03:14:43;23.90;;;9.75;;
9140;SDS011;46330;50.822;7.126;2022-10-19T03:17:11;20.17;;;9.82;;
9140;SDS011;46330;50.822;7.126;2022-10-19T03:19:39;22.98;;;10.15;;
9140;SDS011;46330;50.822;7.126;2022-10-19T03:22:07;27.38;;;10.07;;
9140;SDS011;46330;50.822;7.126;2022-10-19T03:24:36;36.88;;;10.02;;
9140;SDS011;46330;50.822;7.126;2022-10-19T03:27:03;27.65;;;10.48;;
9140;SDS011;46330;50.822;7.126;2022-10-19T03:29:31;25.60;;;10.38;;
9140;SDS011;46330;50.822;7.126;2022-10-19T03:31:59;39.58;;;11.30;;
9140;SDS011;46330;50.822;7.126;2022-10-19T03:34:27;32.30;;;11.30;;
9140;SDS011;46330;50.822;7.126;2022-10-19T03:36:55;23.75;;;11.23;;
9140;SDS011;46330;50.822;7.126;2022-10-19T03:39:24;19.80;;;11.20;;
9140;SDS011;46330;50.822;7.126;2022-10-19T03:41:53;18.90;;;10.43;;
9140;SDS011;46330;50.822;7.126;2022-10-19T03:44:21;25.33;;;10.43;;
9140;SDS011;46330;50.822;7.126;2022-10-19T03:46:48;18.45;;;10.32;;
9140;SDS011;46330;50.822;7.126;2022-10-19T03:49:16;23.95;;;10.38;;
9140;SDS011;46330;50.822;7.126;2022-10-19T03:51:44;23.98;;;10.82;;
9140;SDS011;46330;50.822;7.126;2022-10-19T03:54:13;20.13;;;10.48;;
9140;SDS011;46330;50.822;7.126;2022-10-19T03:56:42;25.48;;;10.23;;
9140;SDS011;46330;50.822;7.126;2022-10-19T03:59:12;63.47;;;9.77;;
9140;SDS011;46330;50.822;7.126;2022-10-19T04:01:42;40.30;;;9.18;;
9140;SDS011;46330;50.822;7.126;2022-10-19T04:04:12;37.00;;;8.68;;
9140;SDS011;46330;50.822;7.126;2022-10-19T04:06:42;37.92;;;9.05;;
9140;SDS011;46330;50.822;7.126;2022-10-19T04:09:12;22.13;;;8.95;;
9140;SDS011;46330;50.822;7.126;2022-10-19T04:11:41;43.75;;;8.73;;
9140;SDS011;46330;50.822;7.126;2022-10-19T04:14:09;29.42;;;9.60;;
9140;SDS011;46330;50.822;7.126;2022-10-19T04:16:53;22.20;;;9.43;;
9140;SDS011;46330;50.822;7.126;2022-10-19T04:19:21;23.48;;;9.68;;
9140;SDS011;46330;50.822;7.126;2022-10-19T04:21:49;31.52;;;10.38;;
9140;SDS011;46330;50.822;7.126;2022-10-19T04:24:17;27.13;;;9.80;;
9140;SDS011;46330;50.822;7.126;2022-10-19T04:26:46;20.65;;;9.50;;
9140;SDS011;46330;50.822;7.126;2022-10-19T04:29:15;26.48;;;9.65;;
9140;SDS011;46330;50.822;7.126;2022-10-19T04:31:44;27.67;;;9.70;;
9140;SDS011;46330;50.822;7.126;2022-10-19T04:34:16;22.75;;;10.15;;
9140;SDS011;46330;50.822;7.126;2022-10-19T04:36:44;19.45;;;10.02;;
9140;SDS011;46330;50.822;7.126;2022-10-19T04:39:12;28.20;;;10.38;;
9140;SDS011;46330;50.822;7.126;2022-10-19T04:41:40;24.90;;;9.18;;
9140;SDS011;46330;50.822;7.126;2022-10-19T04:44:08;19.88;;;9.90;;
9140;SDS011;46330;50.822;7.126;2022-10-19T04:46:36;21.15;;;10.57;;
9140;SDS011;46330;50.822;7.126;2022-10-19T04:49:04;23.33;;;10.68;;
9140;SDS011;46330;50.822;7.126;2022-10-19T04:51:33;37.50;;;10.18;;
9140;SDS011;46330;50.822;7.126;2022-10-19T04:54:01;47.90;;;10.75;;
9140;SDS011;46330;50.822;7.126;2022-10-19T04:56:29;21.25;;;10.70;;
9140;SDS011;46330;50.822;7.126;2022-10-19T04:58:58;28.60;;;10.38;;
9140;SDS011;46330;50.822;7.126;2022-10-19T05:01:27;26.23;;;10.75;;
9140;SDS011;46330;50.822;7.126;2022-10-19T05:03:56;21.52;;;10.60;;
9140;SDS011;46330;50.822;7.126;2022-10-19T05:06:25;66.35;;;11.88;;
9140;SDS011;46330;50.822;7.126;2022-10-19T05:08:55;32.35;;;11.18;;
9140;SDS011;46330;50.822;7.126;2022-10-19T05:11:24;63.13;;;10.48;;
9140;SDS011;46330;50.822;7.126;2022-10-19T05:13:52;27.95;;;10.07;;
9140;SDS011;46330;50.822;7.126;2022-10-19T05:16:20;28.02;;;10.85;;
9140;SDS011;46330;50.822;7.126;2022-10-19T05:18:51;35.40;;;11.25;;
9140;SDS011;46330;50.822;7.126;2022-10-19T05:21:21;30.10;;;11.68;;
9140;SDS011;46330;50.822;7.126;2022-10-19T05:23:50;21.35;;;11.23;;
9140;SDS011;46330;50.822;7.126;2022-10-19T05:26:20;24.40;;;11.07;;
9140;SDS011;46330;50.822;7.126;2022-10-19T05:28:50;32.10;;;11.68;;
9140;SDS011;46330;50.822;7.126;2022-10-19T05:31:22;25.05;;;12.48;;
9140;SDS011;46330;50.822;7.126;2022-10-19T05:33:51;22.05;;;11.68;;
9140;SDS011;46330;50.822;7.126;2022-10-19T05:36:19;25.75;;;11.88;;
9140;SDS011;46330;50.822;7.126;2022-10-19T05:38:50;23.58;;;12.57;;
9140;SDS011;46330;50.822;7.126;2022-10-19T05:41:21;23.67;;;11.95;;
9140;SDS011;46330;50.822;7.126;2022-10-19T05:43:51;22.73;;;12.52;;
9140;SDS011;46330;50.822;7.126;2022-10-19T05:46:20;26.73;;;12.73;;
9140;SDS011;46330;50.822;7.126;2022-10-19T05:48:48;27.35;;;13.45;;
9140;SDS011;46330;50.822;7.126;2022-10-19T05:51:17;26.33;;;13.30;;
9140;SDS011;46330;50.822;7.126;2022-10-19T05:53:47;26.58;;;12.25;;
9140;SDS011;46330;50.822;7.126;2022-10-19T05:56:17;26.05;;;13.20;;
9140;SDS011;46330;50.822;7.126;2022-10-19T05:58:47;26.20;;;13.45;;
9140;SDS011;46330;50.822;7.126;2022-10-19T06:01:16;24.15;;;12.75;;
9140;SDS011;46330;50.822;7.126;2022-10-19T06:03:45;30.88;;;13.43;;
9140;SDS011;46330;50.822;7.126;2022-10-19T06:06:17;27.23;;;11.93;;
9140;SDS011;46330;50.822;7.126;2022-10-19T06:08:45;28.33;;;12.95;;
9140;SDS011;46330;50.822;7.126;2022-10-19T06:11:14;27.70;;;13.18;;
9140;SDS011;46330;50.822;7.126;2022-10-19T06:13:45;24.42;;;12.77;;
9140;SDS011;46330;50.822;7.126;2022-10-19T06:16:17;26.15;;;12.95;;
9140;SDS011;46330;50.822;7.126;2022-10-19T06:18:45;26.75;;;14.30;;
9140;SDS011;46330;50.822;7.126;2022-10-19T06:21:14;27.77;;;13.02;;
9140;SDS011;46330;50.822;7.126;2022-10-19T06:23:43;24.80;;;12.60;;
9140;SDS011;46330;50.822;7.126;2022-10-19T06:26:12;28.25;;;12.52;;
9140;SDS011;46330;50.822;7.126;2022-10-19T06:28:41;25.92;;;12.50;;
9140;SDS011;46330;50.822;7.126;2022-10-19T06:31:10;23.48;;;12.93;;
9140;SDS011;46330;50.822;7.126;2022-10-19T06:33:42;22.15;;;12.52;;
9140;SDS011;46330;50.822;7.126;2022-10-19T06:36:16;23.13;;;12.17;;
9140;SDS011;46330;50.822;7.126;2022-10-19T06:38:45;21.73;;;11.73;;
9140;SDS011;46330;50.822;7.126;2022-10-19T06:41:14;25.38;;;11.70;;
9140;SDS011;46330;50.822;7.126;2022-10-19T06:43:41;24.20;;;11.82;;
9140;SDS011;46330;50.822;7.126;2022-10-19T06:46:10;20.75;;;11.95;;
9140;SDS011;46330;50.822;7.126;2022-10-19T06:48:42;23.75;;;12.63;;
9140;SDS011;46330;50.822;7.126;2022-10-19T06:51:09;23.40;;;11.80;;
9140;SDS011;46330;50.822;7.126;2022-10-19T06:53:38;22.17;;;12.85;;
9140;SDS011;46330;50.822;7.126;2022-10-19T06:56:06;22.08;;;11.55;;
9140;SDS011;46330;50.822;7.126;2022-10-19T06:58:34;22.83;;;11.25;;
9140;SDS011;46330;50.822;7.126;2022-10-19T07:01:03;23.92;;;11.50;;
9140;SDS011;46330;50.822;7.126;2022-10-19T07:03:32;26.00;;;12.45;;
9140;SDS011;46330;50.822;7.126;2022-10-19T07:06:03;19.15;;;11.13;;
9140;SDS011;46330;50.822;7.126;2022-10-19T07:08:33;26.23;;;11.05;;
9140;SDS011;46330;50.822;7.126;2022-10-19T07:11:02;22.35;;;10.07;;
9140;SDS011;46330;50.822;7.126;2022-10-19T07:13:32;17.20;;;9.32;;
9140;SDS011;46330;50.822;7.126;2022-10-19T07:16:00;22.27;;;9.98;;
9140;SDS011;46330;50.822;7.126;2022-10-19T07:18:31;15.63;;;8.52;;
9140;SDS011;46330;50.822;7.126;2022-10-19T07:21:00;19.98;;;10.00;;
9140;SDS011;46330;50.822;7.126;2022-10-19T07:23:32;20.40;;;9.70;;
9140;SDS011;46330;50.822;7.126;2022-10-19T07:26:04;19.80;;;10.05;;
9140;SDS011;46330;50.822;7.126;2022-10-19T07:28:34;19.20;;;8.60;;
9140;SDS011;46330;50.822;7.126;2022-10-19T07:31:06;11.15;;;6.72;;
9140;SDS011;46330;50.822;7.126;2022-10-19T07:33:34;16.60;;;8.02;;
9140;SDS011;46330;50.822;7.126;2022-10-19T07:36:05;13.35;;;7.95;;
9140;SDS011;46330;50.822;7.126;2022-10-19T07:38:34;12.00;;;6.72;;
9140;SDS011;46330;50.822;7.126;2022-10-19T07:41:03;12.32;;;7.38;;
9140;SDS011;46330;50.822;7.126;2022-10-19T07:43:32;10.18;;;6.40;;
9140;SDS011;46330;50.822;7.126;2022-10-19T07:46:01;9.95;;;6.05;;
9140;SDS011;46330;50.822;7.126;2022-10-19T07:48:30;13.23;;;6.00;;
9140;SDS011;46330;50.822;7.126;2022-10-19T07:50:59;10.80;;;5.60;;
9140;SDS011;46330;50.822;7.126;2022-10-19T07:53:29;9.15;;;5.40;;
9140;SDS011;46330;50.822;7.126;2022-10-19T07:56:03;8.57;;;4.63;;
9140;SDS011;46330;50.822;7.126;2022-10-19T07:58:32;9.73;;;4.90;;
9140;SDS011;46330;50.822;7.126;2022-10-19T08:01:01;9.93;;;5.22;;
9140;SDS011;46330;50.822;7.126;2022-10-19T08:03:30;10.70;;;5.60;;
9140;SDS011;46330;50.822;7.126;2022-10-19T08:06:19;7.78;;;5.40;;
9140;SDS011;46330;50.822;7.126;2022-10-19T08:08:49;10.35;;;5.70;;
9140;SDS011;46330;50.822;7.126;2022-10-19T08:11:18;9.85;;;4.82;;
9140;SDS011;46330;50.822;7.126;2022-10-19T08:13:48;6.85;;;4.30;;
9140;SDS011;46330;50.822;7.126;2022-10-19T08:16:20;8.18;;;4.40;;
9140;SDS011;46330;50.822;7.126;2022-10-19T08:18:50;10.65;;;4.68;;
9140;SDS011;46330;50.822;7.126;2022-10-19T08:21:19;8.98;;;4.55;;
9140;SDS011;46330;50.822;7.126;2022-10-19T08:23:46;9.65;;;4.57;;
9140;SDS011;46330;50.822;7.126;2022-10-19T08:26:15;8.35;;;4.65;;
9140;SDS011;46330;50.822;7.126;2022-10-19T08:28:43;12.80;;;4.57;;
9140;SDS011;46330;50.822;7.126;2022-10-19T08:31:12;11.55;;;4.43;;
9140;SDS011;46330;50.822;7.126;2022-10-19T08:33:41;10.48;;;4.30;;
9140;SDS011;46330;50.822;7.126;2022-10-19T08:36:11;8.55;;;4.30;;
9140;SDS011;46330;50.822;7.126;2022-10-19T08:38:39;8.15;;;4.45;;
9140;SDS011;46330;50.822;7.126;2022-10-19T08:41:22;8.63;;;4.63;;
9140;SDS011;46330;50.822;7.126;2022-10-19T08:43:58;10.48;;;4.60;;
9140;SDS011;46330;50.822;7.126;2022-10-19T08:46:37;8.20;;;4.90;;
9140;SDS011;46330;50.822;7.126;2022-10-19T08:49:14;8.07;;;4.65;;
9140;SDS011;46330;50.822;7.126;2022-10-19T08:51:45;7.07;;;4.53;;
9140;SDS011;46330;50.822;7.126;2022-10-19T08:54:16;7.90;;;4.70;;
9140;SDS011;46330;50.822;7.126;2022-10-19T08:56:56;7.05;;;4.57;;
9140;SDS011;46330;50.822;7.126;2022-10-19T08:59:33;8.48;;;5.20;;
9140;SDS011;46330;50.822;7.126;2022-10-19T09:02:09;9.93;;;4.80;;
9140;SDS011;46330;50.822;7.126;2022-10-19T09:04:43;10.70;;;5.03;;
9140;SDS011;46330;50.822;7.126;2022-10-19T09:07:22;7.72;;;4.68;;
9140;SDS011;46330;50.822;7.126;2022-10-19T09:09:54;8.68;;;4.47;;
9140;SDS011;46330;50.822;7.126;2022-10-19T09:12:30;9.18;;;4.50;;
9140;SDS011;46330;50.822;7.126;2022-10-19T09:15:04;8.70;;;4.75;;
9140;SDS011;46330;50.822;7.126;2022-10-19T09:17:37;10.05;;;4.95;;
9140;SDS011;46330;50.822;7.126;2022-10-19T09:20:12;10.88;;;4.90;;
9140;SDS011;46330;50.822;7.126;2022-10-19T09:22:42;10.30;;;4.53;;
9140;SDS011;46330;50.822;7.126;2022-10-19T09:25:16;8.45;;;4.30;;
9140;SDS011;46330;50.822;7.126;2022-10-19T09:27:47;11.23;;;4.70;;
9140;SDS011;46330;50.822;7.126;2022-10-19T09:30:20;10.15;;;4.40;;
9140;SDS011;46330;50.822;7.126;2022-10-19T09:32:50;6.95;;;4.35;;
9140;SDS011;46330;50.822;7.126;2022-10-19T09:35:25;9.73;;;4.57;;
9140;SDS011;46330;50.822;7.126;2022-10-19T09:37:56;7.70;;;4.40;;
9140;SDS011;46330;50.822;7.126;2022-10-19T09:40:26;9.43;;;4.53;;
9140;SDS011;46330;50.822;7.126;2022-10-19T09:42:56;9.13;;;4.45;;
9140;SDS011;46330;50.822;7.126;2022-10-19T09:45:30;9.27;;;4.28;;
9140;SDS011;46330;50.822;7.126;2022-10-19T09:48:03;7.90;;;4.20;;
9140;SDS011;46330;50.822;7.126;2022-10-19T09:50:43;8.88;;;3.75;;
9140;SDS011;46330;50.822;7.126;2022-10-19T09:53:15;8.32;;;4.28;;
9140;SDS011;46330;50.822;7.126;2022-10-19T09:55:46;7.40;;;4.20;;
9140;SDS011;46330;50.822;7.126;2022-10-19T09:58:19;8.32;;;4.00;;
9140;SDS011;46330;50.822;7.126;2022-10-19T10:00:47;6.30;;;3.72;;
9140;SDS011;46330;50.822;7.126;2022-10-19T10:03:27;8.20;;;3.63;;
9140;SDS011;46330;50.822;7.126;2022-10-19T10:05:56;6.30;;;3.50;;
9140;SDS011;46330;50.822;7.126;2022-10-19T10:08:28;8.75;;;3.50;;
9140;SDS011;46330;50.822;7.126;2022-10-19T10:11:04;10.32;;;3.95;;
9140;SDS011;46330;50.822;7.126;2022-10-19T10:13:39;8.77;;;4.13;;
9140;SDS011;46330;50.822;7.126;2022-10-19T10:16:09;7.30;;;3.97;;
9140;SDS011;46330;50.822;7.126;2022-10-19T10:18:48;8.85;;;3.80;;
9140;SDS011;46330;50.822;7.126;2022-10-19T10:21:21;6.35;;;3.40;;
9140;SDS011;46330;50.822;7.126;2022-10-19T10:23:58;10.15;;;4.05;;
9140;SDS011;46330;50.822;7.126;2022-10-19T10:26:28;6.80;;;3.55;;
9140;SDS011;46330;50.822;7.126;2022-10-19T10:28:57;8.95;;;3.50;;
9140;SDS011;46330;50.822;7.126;2022-10-19T10:31:27;10.77;;;3.80;;
9140;SDS011;46330;50.822;7.126;2022-10-19T10:33:57;8.77;;;3.40;;
9140;SDS011;46330;50.822;7.126;2022-10-19T10:36:48;8.45;;;3.42;;
9140;SDS011;46330;50.822;7.126;2022-10-19T10:39:17;6.07;;;2.97;;
9140;SDS011;46330;50.822;7.126;2022-10-19T10:41:45;9.63;;;3.50;;
9140;SDS011;46330;50.822;7.126;2022-10-19T10:44:18;9.55;;;3.20;;
9140;SDS011;46330;50.822;7.126;2022-10-19T10:46:51;6.40;;;2.92;;
9140;SDS011;46330;50.822;7.126;2022-10-19T10:49:22;7.93;;;3.17;;
9140;SDS011;46330;50.822;7.126;2022-10-19T10:51:52;8.65;;;3.15;;
9140;SDS011;46330;50.822;7.126;2022-10-19T10:54:22;7.20;;;3.20;;
9140;SDS011;46330;50.822;7.126;2022-10-19T10:56:56;8.27;;;3.10;;
9140;SDS011;46330;50.822;7.126;2022-10-19T10:59:33;9.75;;;3.15;;
9140;SDS011;46330;50.822;7.126;2022-10-19T11:02:13;9.65;;;2.90;;
9140;SDS011;46330;50.822;7.126;2022-10-19T11:04:53;6.30;;;2.88;;
9140;SDS011;46330;50.822;7.126;2022-10-19T11:07:25;7.05;;;2.60;;
9140;SDS011;46330;50.822;7.126;2022-10-19T11:09:56;6.07;;;2.83;;
9140;SDS011;46330;50.822;7.126;2022-10-19T11:12:31;7.20;;;2.80;;
9140;SDS011;46330;50.822;7.126;2022-10-19T11:15:05;6.00;;;2.47;;
9140;SDS011;46330;50.822;7.126;2022-10-19T11:17:50;5.47;;;2.50;;
9140;SDS011;46330;50.822;7.126;2022-10-19T11:20:22;5.10;;;2.70;;
9140;SDS011;46330;50.822;7.126;2022-10-19T11:22:58;8.27;;;2.90;;
9140;SDS011;46330;50.822;7.126;2022-10-19T11:25:35;7.35;;;3.10;;
9140;SDS011;46330;50.822;7.126;2022-10-19T11:28:19;8.40;;;2.67;;
9140;SDS011;46330;50.822;7.126;2022-10-19T11:30:58;6.05;;;2.60;;
9140;SDS011;46330;50.822;7.126;2022-10-19T11:33:37;9.40;;;2.90;;
9140;SDS011;46330;50.822;7.126;2022-10-19T11:36:14;7.10;;;2.50;;
9140;SDS011;46330;50.822;7.126;2022-10-19T11:38:58;9.73;;;2.40;;
9140;SDS011;46330;50.822;7.126;2022-10-19T11:41:42;9.52;;;2.70;;
9140;SDS011;46330;50.822;7.126;2022-10-19T11:44:22;7.82;;;2.90;;
9140;SDS011;46330;50.822;7.126;2022-10-19T11:47:16;7.57;;;2.85;;
9140;SDS011;46330;50.822;7.126;2022-10-19T11:49:57;6.38;;;2.78;;
9140;SDS011;46330;50.822;7.126;2022-10-19T11:52:41;8.98;;;2.53;;
9140;SDS011;46330;50.822;7.126;2022-10-19T11:55:19;4.68;;;2.33;;
9140;SDS011;46330;50.822;7.126;2022-10-19T11:57:57;7.28;;;2.60;;
9140;SDS011;46330;50.822;7.126;2022-10-19T12:00:36;7.13;;;2.90;;
9140;SDS011;46330;50.822;7.126;2022-10-19T12:03:30;6.72;;;2.83;;
9140;SDS011;46330;50.822;7.126;2022-10-19T12:06:15;7.70;;;3.45;;
9140;SDS011;46330;50.822;7.126;2022-10-19T12:08:55;9.18;;;2.88;;
9140;SDS011;46330;50.822;7.126;2022-10-19T12:14:12;6.35;;;2.65;;
9140;SDS011;46330;50.822;7.126;2022-10-19T12:16:44;6.43;;;2.75;;
9140;SDS011;46330;50.822;7.126;2022-10-19T12:19:17;9.95;;;3.47;;
9140;SDS011;46330;50.822;7.126;2022-10-19T12:21:48;7.30;;;2.85;;
9140;SDS011;46330;50.822;7.126;2022-10-19T12:24:20;7.95;;;3.10;;
9140;SDS011;46330;50.822;7.126;2022-10-19T12:26:50;10.93;;;3.00;;
9140;SDS011;46330;50.822;7.126;2022-10-19T12:29:21;8.23;;;2.90;;
9140;SDS011;46330;50.822;7.126;2022-10-19T12:31:52;8.35;;;2.78;;
9140;SDS011;46330;50.822;7.126;2022-10-19T12:34:25;6.47;;;2.70;;
9140;SDS011;46330;50.822;7.126;2022-10-19T12:37:04;8.80;;;3.05;;
9140;SDS011;46330;50.822;7.126;2022-10-19T12:39:38;9.00;;;3.00;;
9140;SDS011;46330;50.822;7.126;2022-10-19T12:42:12;6.15;;;2.90;;
9140;SDS011;46330;50.822;7.126;2022-10-19T12:44:56;6.05;;;2.90;;
9140;SDS011;46330;50.822;7.126;2022-10-19T12:47:37;7.82;;;2.90;;
9140;SDS011;46330;50.822;7.126;2022-10-19T12:50:06;7.63;;;3.08;;
9140;SDS011;46330;50.822;7.126;2022-10-19T12:52:36;9.32;;;3.33;;
9140;SDS011;46330;50.822;7.126;2022-10-19T12:55:22;8.95;;;2.90;;
9140;SDS011;46330;50.822;7.126;2022-10-19T12:57:55;10.90;;;2.92;;
9140;SDS011;46330;50.822;7.126;2022-10-19T13:00:27;7.45;;;2.88;;
9140;SDS011;46330;50.822;7.126;2022-10-19T13:02:58;7.05;;;2.70;;
9140;SDS011;46330;50.822;7.126;2022-10-19T13:05:30;5.90;;;2.60;;
9140;SDS011;46330;50.822;7.126;2022-10-19T13:07:59;7.47;;;3.10;;
9140;SDS011;46330;50.822;7.126;2022-10-19T13:10:28;7.65;;;3.05;;
9140;SDS011;46330;50.822;7.126;2022-10-19T13:12:59;7.70;;;2.85;;
9140;SDS011;46330;50.822;7.126;2022-10-19T13:24:39;7.22;;;2.75;;
9140;SDS011;46330;50.822;7.126;2022-10-19T13:27:23;11.77;;;2.80;;
9140;SDS011;46330;50.822;7.126;2022-10-19T13:30:03;7.35;;;2.42;;
9140;SDS011;46330;50.822;7.126;2022-10-19T13:32:40;7.35;;;2.83;;
9140;SDS011;46330;50.822;7.126;2022-10-19T13:35:25;7.72;;;2.78;;
9140;SDS011;46330;50.822;7.126;2022-10-19T13:40:58;8.90;;;2.95;;
9140;SDS011;46330;50.822;7.126;2022-10-19T13:43:31;8.15;;;2.55;;
9140;SDS011;46330;50.822;7.126;2022-10-19T13:46:13;7.25;;;2.53;;
9140;SDS011;46330;50.822;7.126;2022-10-19T13:48:54;8.70;;;3.13;;
9140;SDS011;46330;50.822;7.126;2022-10-19T13:51:36;8.13;;;2.50;;
9140;SDS011;46330;50.822;7.126;2022-10-19T13:54:17;6.95;;;2.40;;
9140;SDS011;46330;50.822;7.126;2022-10-19T13:57:02;6.55;;;2.65;;
9140;SDS011;46330;50.822;7.126;2022-10-19T13:59:44;10.68;;;2.40;;
9140;SDS011;46330;50.822;7.126;2022-10-19T14:02:44;6.60;;;2.55;;
9140;SDS011;46330;50.822;7.126;2022-10-19T14:05:25;7.88;;;2.70;;
9140;SDS011;46330;50.822;7.126;2022-10-19T14:08:13;8.32;;;2.88;;
9140;SDS011;46330;50.822;7.126;2022-10-19T14:10:57;7.90;;;2.63;;
9140;SDS011;46330;50.822;7.126;2022-10-19T14:13:28;9.43;;;2.50;;
9140;SDS011;46330;50.822;7.126;2022-10-19T14:15:57;6.97;;;2.70;;
9140;SDS011;46330;50.822;7.126;2022-10-19T14:18:29;7.05;;;2.70;;
9140;SDS011;46330;50.822;7.126;2022-10-19T14:20:58;5.80;;;2.40;;
9140;SDS011;46330;50.822;7.126;2022-10-19T14:23:28;7.57;;;2.60;;
9140;SDS011;46330;50.822;7.126;2022-10-19T14:26:00;4.47;;;2.35;;
9140;SDS011;46330;50.822;7.126;2022-10-19T14:28:31;6.13;;;2.40;;
9140;SDS011;46330;50.822;7.126;2022-10-19T14:31:00;6.07;;;2.53;;
9140;SDS011;46330;50.822;7.126;2022-10-19T14:33:31;5.47;;;2.38;;
9140;SDS011;46330;50.822;7.126;2022-10-19T14:36:01;7.40;;;2.65;;
9140;SDS011;46330;50.822;7.126;2022-10-19T14:38:31;7.90;;;2.50;;
9140;SDS011;46330;50.822;7.126;2022-10-19T14:41:01;12.05;;;2.88;;
9140;SDS011;46330;50.822;7.126;2022-10-19T14:43:32;7.70;;;2.60;;
9140;SDS011;46330;50.822;7.126;2022-10-19T14:46:11;6.50;;;2.50;;
9140;SDS011;46330;50.822;7.126;2022-10-19T14:48:40;6.65;;;2.55;;
9140;SDS011;46330;50.822;7.126;2022-10-19T14:51:15;6.85;;;2.75;;
9140;SDS011;46330;50.822;7.126;2022-10-19T14:53:50;9.02;;;2.65;;
9140;SDS011;46330;50.822;7.126;2022-10-19T14:56:23;4.40;;;2.58;;
9140;SDS011;46330;50.822;7.126;2022-10-19T14:58:57;11.05;;;2.92;;
9140;SDS011;46330;50.822;7.126;2022-10-19T15:01:27;7.65;;;2.60;;
9140;SDS011;46330;50.822;7.126;2022-10-19T15:03:55;5.70;;;2.60;;
9140;SDS011;46330;50.822;7.126;2022-10-19T15:06:24;5.78;;;2.50;;
9140;SDS011;46330;50.822;7.126;2022-10-19T15:08:55;6.75;;;2.50;;
9140;SDS011;46330;50.822;7.126;2022-10-19T15:11:27;10.30;;;3.00;;
9140;SDS011;46330;50.822;7.126;2022-10-19T15:13:59;7.25;;;2.75;;
9140;SDS011;46330;50.822;7.126;2022-10-19T15:16:31;5.88;;;2.65;;
9140;SDS011;46330;50.822;7.126;2022-10-19T15:19:13;9.25;;;2.97;;
9140;SDS011;46330;50.822;7.126;2022-10-19T15:24:20;11.75;;;2.70;;
9140;SDS011;46330;50.822;7.126;2022-10-19T15:26:53;6.70;;;2.55;;
9140;SDS011;46330;50.822;7.126;2022-10-19T15:29:36;4.63;;;2.58;;
9140;SDS011;46330;50.822;7.126;2022-10-19T15:32:12;10.50;;;2.85;;
9140;SDS011;46330;50.822;7.126;2022-10-19T15:37:14;7.25;;;2.63;;
9140;SDS011;46330;50.822;7.126;2022-10-19T15:39:44;5.22;;;2.85;;
9140;SDS011;46330;50.822;7.126;2022-10-19T15:42:28;7.72;;;2.95;;
9140;SDS011;46330;50.822;7.126;2022-10-19T15:50:54;5.90;;;3.08;;